Time;durP1;ratioP1;P1;durP2;ratioP2;P2;SDS_P1;SDS_P2;PMS_P1;PMS_P2;Temp;Humidity;BMP_temperature;BMP_pressure;BME280_temperature;BME280_humidity;BME280_pressure;Samples;Min_cycle;Max_cycle;Signal;HPM_P1;HPM_P2
2023/03/22 00:01:18;;;;;;;4.22;2.03;;;;;;;12.01;65.75;100946.97;5079681;28;20041;-64
2023/03/22 00:03:47;;;;;;;4.93;1.92;;;;;;;12.01;65.58;100941.56;5073719;28;20102;-63
2023/03/22 00:06:16;;;;;;;4.80;1.90;;;;;;;12.01;65.72;100944.25;5072973;28;20052;-63
2023/03/22 00:08:44;;;;;;;6.75;2.30;;;;;;;12.00;65.43;100948.00;5083461;28;20333;-63
2023/03/22 00:11:12;;;;;;;11.02;2.05;;;;;;;11.98;65.54;100942.03;5080115;28;20104;-63
2023/03/22 00:13:41;;;;;;;6.35;2.40;;;;;;;11.97;65.71;100938.50;5083562;28;20181;-62
2023/03/22 00:16:10;;;;;;;5.75;2.35;;;;;;;11.96;65.49;100939.56;5070837;28;20048;-63
2023/03/22 00:18:40;;;;;;;6.57;2.10;;;;;;;11.96;65.66;100933.34;5081565;28;20541;-64
2023/03/22 00:21:11;;;;;;;5.50;2.17;;;;;;;11.96;65.39;100926.09;5074995;28;20133;-64
2023/03/22 00:23:39;;;;;;;4.40;2.03;;;;;;;11.96;65.70;100928.78;5079665;28;20136;-63
2023/03/22 00:26:08;;;;;;;8.77;2.60;;;;;;;11.95;65.73;100927.16;5078175;28;20041;-63
2023/03/22 00:28:36;;;;;;;6.68;2.58;;;;;;;11.96;65.55;100920.72;5078779;28;20112;-63
2023/03/22 00:31:05;;;;;;;5.88;2.10;;;;;;;11.95;65.59;100915.56;5076500;28;20490;-63
2023/03/22 00:33:33;;;;;;;5.88;2.35;;;;;;;11.93;65.45;100907.69;5065910;28;20044;-63
2023/03/22 00:36:04;;;;;;;4.88;1.92;;;;;;;11.94;65.48;100913.91;5081552;28;20112;-63
2023/03/22 00:38:35;;;;;;;6.60;2.45;;;;;;;11.93;65.66;100907.69;5080945;28;20052;-63
2023/03/22 00:41:12;;;;;;;7.88;2.10;;;;;;;11.92;65.71;100903.38;5078688;28;20061;-63
2023/03/22 00:43:40;;;;;;;6.40;2.50;;;;;;;11.92;65.62;100899.84;5076058;28;20075;-62
2023/03/22 00:46:08;;;;;;;6.25;2.35;;;;;;;11.90;65.60;100894.69;5064964;28;20083;-63
2023/03/22 00:48:36;;;;;;;8.15;2.50;;;;;;;11.91;65.29;100890.94;5079164;28;20045;-63
2023/03/22 00:51:05;;;;;;;5.90;2.38;;;;;;;11.89;65.64;100884.16;5072126;28;20037;-63
2023/03/22 00:53:35;;;;;;;4.93;2.20;;;;;;;11.85;65.55;100889.16;5070491;28;20064;-63
2023/03/22 00:56:03;;;;;;;5.60;2.92;;;;;;;11.84;65.29;100882.16;5080477;28;20106;-64
2023/03/22 00:58:31;;;;;;;6.57;2.40;;;;;;;11.86;65.55;100881.91;5081929;28;20113;-63
2023/03/22 01:00:59;;;;;;;5.30;2.72;;;;;;;11.85;65.61;100872.19;5071547;28;20044;-63
2023/03/22 01:03:27;;;;;;;6.65;2.80;;;;;;;11.84;65.52;100867.84;5078359;28;20067;-63
2023/03/22 01:05:55;;;;;;;7.65;2.45;;;;;;;11.83;65.74;100864.34;5082383;28;20064;-63
2023/03/22 01:08:24;;;;;;;6.60;2.60;;;;;;;11.83;65.53;100866.22;5081761;28;20072;-63
2023/03/22 01:10:52;;;;;;;7.53;2.72;;;;;;;11.82;65.44;100860.00;5077461;28;20079;-63
2023/03/22 01:13:20;;;;;;;6.65;2.85;;;;;;;11.81;65.58;100858.38;5077302;28;20062;-64
2023/03/22 01:15:50;;;;;;;7.25;2.65;;;;;;;11.79;65.51;100860.47;5079271;28;20104;-64
2023/03/22 01:18:18;;;;;;;5.55;2.95;;;;;;;11.77;65.42;100857.19;5079679;28;20052;-63
2023/03/22 01:20:46;;;;;;;6.45;2.92;;;;;;;11.79;65.64;100856.97;5078194;28;20052;-63
2023/03/22 01:23:14;;;;;;;6.13;2.78;;;;;;;11.79;65.81;100843.50;5077926;28;20080;-64
2023/03/22 01:25:43;;;;;;;4.60;2.70;;;;;;;11.77;65.48;100842.88;5075341;28;20080;-64
2023/03/22 01:28:11;;;;;;;5.22;2.55;;;;;;;11.77;65.56;100829.41;5070756;28;20045;-64
2023/03/22 01:30:39;;;;;;;7.20;3.47;;;;;;;11.76;65.50;100828.59;5078143;28;20156;-63
2023/03/22 01:33:07;;;;;;;5.10;2.78;;;;;;;11.76;65.77;100815.13;5071259;28;20513;-64
2023/03/22 01:35:36;;;;;;;6.00;3.25;;;;;;;11.76;65.61;100817.81;5081857;28;20075;-63
2023/03/22 01:38:04;;;;;;;10.07;3.38;;;;;;;11.73;65.61;100794.88;5077202;28;20111;-62
2023/03/22 01:40:32;;;;;;;6.45;3.28;;;;;;;11.74;65.70;100796.50;5080032;28;20064;-62
2023/03/22 01:43:02;;;;;;;7.85;3.35;;;;;;;11.74;65.97;100795.69;5078232;28;20044;-64
2023/03/22 01:45:39;;;;;;;8.50;3.70;;;;;;;11.73;65.89;100789.47;5076941;28;20059;-63
2023/03/22 01:48:14;;;;;;;4.95;3.15;;;;;;;11.72;65.78;100787.03;5073234;28;20069;-63
2023/03/22 01:50:45;;;;;;;6.45;3.95;;;;;;;11.71;65.86;100786.19;5067711;28;20049;-63
2023/03/22 01:53:17;;;;;;;7.72;4.07;;;;;;;11.70;65.85;100789.94;5078558;28;20181;-64
2023/03/22 01:55:47;;;;;;;7.50;3.45;;;;;;;11.71;65.74;100782.69;5082072;28;20053;-64
2023/03/22 01:58:17;;;;;;;8.73;3.35;;;;;;;11.71;65.72;100772.75;5064513;28;20136;-64
2023/03/22 02:00:45;;;;;;;6.25;3.50;;;;;;;11.72;65.83;100782.44;5078852;28;20040;-64
2023/03/22 02:03:18;;;;;;;6.10;3.38;;;;;;;11.72;65.94;100774.38;5079032;28;20136;-64
2023/03/22 02:05:47;;;;;;;4.60;3.33;;;;;;;11.72;65.73;100765.47;5072465;28;20100;-63
2023/03/22 02:08:15;;;;;;;6.03;3.67;;;;;;;11.71;65.86;100759.28;5071245;28;20120;-64
2023/03/22 02:10:42;;;;;;;8.70;3.50;;;;;;;11.71;65.78;100755.75;5069517;28;20604;-64
2023/03/22 02:13:29;;;;;;;5.93;3.97;;;;;;;11.71;66.19;100750.38;5076376;28;20696;-64
2023/03/22 02:16:07;;;;;;;8.30;3.42;;;;;;;11.71;66.26;100759.28;5071207;28;20116;-63
2023/03/22 02:18:53;;;;;;;6.88;4.15;;;;;;;11.71;65.92;100753.06;5078947;28;20055;-63
2023/03/22 02:21:48;;;;;;;4.80;3.10;;;;;;;11.70;65.88;100746.88;5068721;28;20037;-64
2023/03/22 02:24:45;;;;;;;6.28;3.42;;;;;;;11.71;65.99;100745.00;5074632;28;20068;-64
2023/03/22 02:27:35;;;;;;;5.88;3.30;;;;;;;11.70;66.01;100738.78;5071661;28;20057;-62
2023/03/22 02:30:25;;;;;;;6.88;3.40;;;;;;;11.70;66.02;100740.66;5080300;28;20069;-63
2023/03/22 02:33:20;;;;;;;6.55;3.20;;;;;;;11.68;66.07;100740.88;5077985;28;20079;-63
2023/03/22 02:36:08;;;;;;;5.25;3.30;;;;;;;11.68;65.96;100743.59;5073992;28;20075;-63
2023/03/22 02:39:14;;;;;;;7.88;3.53;;;;;;;11.68;65.87;100732.81;5074674;28;20056;-63
2023/03/22 02:41:58;;;;;;;5.55;3.10;;;;;;;11.68;66.23;100742.75;5070112;28;20069;-63
2023/03/22 02:44:33;;;;;;;4.82;3.17;;;;;;;11.67;66.08;100736.56;5077453;28;20040;-63
2023/03/22 02:47:05;;;;;;;5.25;2.85;;;;;;;11.68;65.97;100742.75;5081010;28;20044;-63
2023/03/22 02:49:37;;;;;;;7.60;3.60;;;;;;;11.67;66.19;100730.34;5065764;28;20095;-62
2023/03/22 02:52:16;;;;;;;6.50;3.10;;;;;;;11.67;66.35;100733.06;5073859;28;20049;-63
2023/03/22 02:54:51;;;;;;;6.03;3.20;;;;;;;11.64;66.26;100725.44;5078413;28;20105;-63
2023/03/22 02:57:26;;;;;;;4.70;2.60;;;;;;;11.65;66.06;100724.38;5083034;28;20059;-64
2023/03/22 02:59:56;;;;;;;6.32;2.88;;;;;;;11.66;66.70;100720.63;5070831;28;20175;-64
2023/03/22 03:02:27;;;;;;;5.70;3.10;;;;;;;11.65;66.21;100714.44;5080328;28;20083;-62
2023/03/22 03:04:57;;;;;;;5.22;2.75;;;;;;;11.67;66.16;100706.13;5075500;28;20056;-63
2023/03/22 03:07:27;;;;;;;6.25;2.95;;;;;;;11.66;66.13;100710.69;5076064;28;20072;-63
2023/03/22 03:09:56;;;;;;;5.78;2.60;;;;;;;11.66;65.83;100708.00;5084448;28;20059;-63
2023/03/22 03:12:25;;;;;;;7.38;3.20;;;;;;;11.66;66.28;100707.19;5079946;28;20083;-63
2023/03/22 03:14:54;;;;;;;7.10;2.95;;;;;;;11.64;66.05;100703.91;5082868;28;20083;-63
2023/03/22 03:17:36;;;;;;;6.00;2.78;;;;;;;11.62;66.07;100700.63;5082738;28;20040;-63
2023/03/22 03:20:22;;;;;;;3.55;2.28;;;;;;;11.63;65.98;100703.09;5073978;28;20158;-63
2023/03/22 03:23:06;;;;;;;5.57;3.03;;;;;;;11.61;65.95;100705.19;5080361;28;20541;-63
2023/03/22 03:25:42;;;;;;;5.80;3.05;;;;;;;11.62;66.03;100700.63;5072249;28;20048;-63
2023/03/22 03:28:21;;;;;;;3.35;2.30;;;;;;;11.62;66.36;100695.25;5081529;28;20495;-63
2023/03/22 03:30:56;;;;;;;4.15;2.50;;;;;;;11.60;66.17;100700.03;5067132;28;20049;-63
2023/03/22 03:33:28;;;;;;;7.72;2.85;;;;;;;11.61;66.15;100694.41;5080032;28;20055;-63
2023/03/22 03:36:00;;;;;;;5.07;2.78;;;;;;;11.61;66.29;100694.41;5079603;28;20063;-63
2023/03/22 03:38:32;;;;;;;4.25;2.80;;;;;;;11.60;65.90;100689.28;5071983;28;20057;-63
2023/03/22 03:41:04;;;;;;;7.28;3.08;;;;;;;11.60;66.36;100700.03;5076740;28;20080;-63
2023/03/22 03:43:34;;;;;;;5.07;2.35;;;;;;;11.59;66.18;100696.53;5083172;28;20048;-63
2023/03/22 03:46:02;;;;;;;5.95;2.45;;;;;;;11.59;66.26;100685.75;5074227;28;20147;-63
2023/03/22 03:48:32;;;;;;;4.78;2.40;;;;;;;11.59;66.09;100698.41;5075668;28;20220;-63
2023/03/22 03:51:02;;;;;;;5.30;2.30;;;;;;;11.59;66.35;100701.09;5075366;28;20440;-64
2023/03/22 03:53:30;;;;;;;4.47;2.20;;;;;;;11.58;66.04;100700.25;5077927;28;20045;-64
2023/03/22 03:55:58;;;;;;;5.78;2.35;;;;;;;11.58;66.21;100702.97;5083560;28;20063;-64
2023/03/22 03:58:29;;;;;;;6.43;2.08;;;;;;;11.57;66.13;100703.19;5078511;28;20060;-64
2023/03/22 04:00:57;;;;;;;3.45;2.17;;;;;;;11.57;66.43;100698.63;5077550;28;20044;-63
2023/03/22 04:03:25;;;;;;;4.18;2.15;;;;;;;11.57;66.23;100703.19;5071693;28;20049;-63
2023/03/22 04:05:53;;;;;;;4.53;2.10;;;;;;;11.57;66.25;100695.13;5083547;28;20076;-64
2023/03/22 04:08:20;;;;;;;5.70;2.55;;;;;;;11.55;66.22;100702.59;5072815;28;20051;-63
2023/03/22 04:10:49;;;;;;;5.40;2.20;;;;;;;11.54;66.11;100699.09;5081053;28;20104;-63
2023/03/22 04:13:17;;;;;;;3.75;1.88;;;;;;;11.55;66.14;100700.72;5075877;28;20036;-63
2023/03/22 04:15:47;;;;;;;5.07;2.55;;;;;;;11.54;66.01;100699.09;5082699;28;20079;-64
2023/03/22 04:18:14;;;;;;;5.65;2.38;;;;;;;11.54;66.02;100703.66;5071723;28;20111;-63
2023/03/22 04:20:45;;;;;;;5.60;2.40;;;;;;;11.54;66.19;100692.88;5080893;28;20094;-64
2023/03/22 04:23:13;;;;;;;4.00;2.05;;;;;;;11.52;66.30;100695.81;5077594;28;20415;-64
2023/03/22 04:25:42;;;;;;;5.68;2.47;;;;;;;11.52;66.04;100697.69;5072881;28;20049;-63
2023/03/22 04:28:12;;;;;;;4.75;1.95;;;;;;;11.51;65.95;100688.78;5070795;28;20087;-64
2023/03/22 04:30:40;;;;;;;5.53;2.30;;;;;;;11.50;66.19;100687.16;5077110;28;20139;-63
2023/03/22 04:33:11;;;;;;;4.75;2.25;;;;;;;11.50;66.27;100680.94;5081104;28;20056;-63
2023/03/22 04:35:38;;;;;;;4.53;2.42;;;;;;;11.49;66.10;100682.00;5081539;28;20068;-64
2023/03/22 04:38:06;;;;;;;4.35;1.90;;;;;;;11.48;66.11;100680.34;5068315;28;20080;-64
2023/03/22 04:40:37;;;;;;;5.47;1.90;;;;;;;11.48;66.04;100680.34;5076624;28;20045;-63
2023/03/22 04:43:05;;;;;;;8.95;2.55;;;;;;;11.47;65.92;100681.41;5073380;28;20127;-64
2023/03/22 04:45:33;;;;;;;2.72;1.90;;;;;;;11.46;66.10;100672.50;5082066;28;20131;-64
2023/03/22 04:48:01;;;;;;;5.65;1.90;;;;;;;11.45;66.09;100681.63;5071576;28;20083;-64
2023/03/22 04:50:30;;;;;;;4.35;1.90;;;;;;;11.45;66.28;100681.63;5071840;28;20044;-63
2023/03/22 04:52:58;;;;;;;3.50;1.95;;;;;;;11.45;66.04;100675.44;5079188;28;20048;-63
2023/03/22 04:55:26;;;;;;;6.00;2.60;;;;;;;11.44;66.15;100676.50;5066746;28;20071;-63
2023/03/22 04:57:54;;;;;;;4.30;1.77;;;;;;;11.43;66.15;100675.66;5081141;28;20060;-64
2023/03/22 05:00:22;;;;;;;4.90;1.90;;;;;;;11.34;66.13;100661.72;5072899;28;20548;-64
2023/03/22 05:02:50;;;;;;;5.60;2.35;;;;;;;11.43;65.97;100674.84;5065299;28;20041;-63
2023/03/22 05:05:18;;;;;;;6.45;2.00;;;;;;;11.43;65.94;100674.84;5079990;28;20075;-64
2023/03/22 05:07:47;;;;;;;5.68;2.10;;;;;;;11.43;66.11;100672.16;5082334;28;20037;-63
2023/03/22 05:10:15;;;;;;;5.97;2.58;;;;;;;11.42;65.92;100674.03;5074657;28;20123;-64
2023/03/22 05:12:43;;;;;;;5.28;2.00;;;;;;;11.41;66.20;100677.78;5071420;28;20072;-63
2023/03/22 05:15:11;;;;;;;4.18;1.70;;;;;;;11.42;66.02;100674.03;5073134;28;20143;-63
2023/03/22 05:17:39;;;;;;;4.55;1.60;;;;;;;11.42;65.90;100674.03;5070562;28;20504;-62
2023/03/22 05:20:08;;;;;;;6.90;2.53;;;;;;;11.41;65.86;100662.44;5073148;28;20127;-62
2023/03/22 05:22:39;;;;;;;6.78;2.33;;;;;;;11.40;66.04;100666.19;5071251;28;20402;-62
2023/03/22 05:25:10;;;;;;;4.72;2.20;;;;;;;11.39;66.04;100659.16;5071882;28;20094;-63
2023/03/22 05:27:38;;;;;;;4.25;1.77;;;;;;;11.40;66.00;100668.06;5075664;28;20068;-63
2023/03/22 05:30:08;;;;;;;5.18;2.40;;;;;;;11.39;66.05;100667.25;5081729;28;20106;-62
2023/03/22 05:32:36;;;;;;;4.88;1.73;;;;;;;11.39;65.91;100664.53;5071239;28;20045;-62
2023/03/22 05:35:05;;;;;;;5.18;1.92;;;;;;;11.40;66.01;100665.38;5075603;28;20049;-64
2023/03/22 05:37:33;;;;;;;7.88;2.13;;;;;;;11.40;66.06;100660.00;5080469;28;20048;-64
2023/03/22 05:40:01;;;;;;;7.07;2.08;;;;;;;11.39;65.96;100666.41;5080517;28;20056;-63
2023/03/22 05:42:31;;;;;;;5.30;1.80;;;;;;;11.38;65.83;100670.16;5075648;28;20108;-63
2023/03/22 05:44:58;;;;;;;4.18;1.80;;;;;;;11.39;66.40;100669.09;5073752;28;20386;-63
2023/03/22 05:47:26;;;;;;;5.93;2.17;;;;;;;11.37;65.93;100674.72;5075167;28;20167;-63
2023/03/22 05:49:54;;;;;;;3.70;1.70;;;;;;;11.38;66.07;100659.41;5075687;28;20075;-65
2023/03/22 05:52:22;;;;;;;5.32;1.83;;;;;;;11.39;65.80;100653.78;5073379;28;20456;-64
2023/03/22 05:54:49;;;;;;;7.45;1.83;;;;;;;11.41;66.03;100665.13;5072893;28;20360;-65
2023/03/22 05:57:17;;;;;;;3.90;1.85;;;;;;;11.49;65.66;100669.34;5090366;28;20048;-65
2023/03/22 05:59:46;;;;;;;7.90;1.95;;;;;;;11.46;65.83;100675.22;5081384;28;20328;-64
2023/03/22 06:02:14;;;;;;;4.00;1.80;;;;;;;11.60;65.83;100668.56;5075021;28;20189;-63
2023/03/22 06:04:42;;;;;;;3.53;1.80;;;;;;;11.51;65.57;100677.19;5069486;28;20071;-63
2023/03/22 06:07:10;;;;;;;10.07;2.03;;;;;;;11.49;65.57;100673.91;5072341;28;20132;-63
2023/03/22 06:09:38;;;;;;;5.50;1.92;;;;;;;11.46;65.95;100664.44;5075318;28;20044;-64
2023/03/22 06:12:06;;;;;;;4.40;1.67;;;;;;;11.52;66.02;100674.28;5080133;28;20073;-63
2023/03/22 06:14:34;;;;;;;4.00;1.88;;;;;;;11.50;65.79;100662.09;5072483;28;20124;-62
2023/03/22 06:17:03;;;;;;;5.32;2.00;;;;;;;11.48;65.87;100669.59;5073507;28;20076;-62
2023/03/22 06:19:31;;;;;;;4.40;1.63;;;;;;;11.48;65.75;100656.97;5080221;28;20058;-62
2023/03/22 06:21:59;;;;;;;8.10;1.73;;;;;;;11.58;65.72;100661.75;5078564;28;20084;-64
2023/03/22 06:24:26;;;;;;;8.27;2.85;;;;;;;11.49;65.87;100658.59;5074296;28;20045;-65
2023/03/22 06:26:54;;;;;;;6.32;2.70;;;;;;;11.46;65.81;100663.63;5079799;28;20047;-64
2023/03/22 06:29:22;;;;;;;8.18;2.45;;;;;;;11.47;65.99;100659.88;5077830;28;20525;-64
2023/03/22 06:31:50;;;;;;;4.80;1.98;;;;;;;11.47;65.95;100658.00;5067736;28;20072;-62
2023/03/22 06:34:19;;;;;;;7.45;1.98;;;;;;;11.58;65.85;100662.59;5075763;28;20116;-63
2023/03/22 06:36:47;;;;;;;6.55;2.40;;;;;;;11.51;65.75;100656.50;5080283;28;20044;-64
2023/03/22 06:39:14;;;;;;;5.78;1.83;;;;;;;11.52;66.42;100666.19;5073730;28;20143;-65
2023/03/22 06:41:42;;;;;;;4.80;1.80;;;;;;;11.56;66.20;100659.31;5077021;28;20517;-65
2023/03/22 06:44:10;;;;;;;4.65;2.17;;;;;;;11.51;66.08;100661.88;5069160;28;20056;-64
2023/03/22 06:46:38;;;;;;;6.40;2.25;;;;;;;11.55;66.79;100664.91;5071645;28;20056;-64
2023/03/22 06:49:06;;;;;;;10.35;2.85;;;;;;;11.51;66.07;100661.88;5075234;28;20048;-63
2023/03/22 06:51:36;;;;;;;3.92;2.05;;;;;;;11.48;66.29;100658.81;5072761;28;20406;-65
2023/03/22 06:54:04;;;;;;;4.55;2.08;;;;;;;11.49;66.25;100674.75;5077129;28;20045;-65
2023/03/22 06:56:32;;;;;;;4.55;2.15;;;;;;;11.49;66.23;100676.63;5078333;28;20044;-68
2023/03/22 06:59:00;;;;;;;7.13;1.90;;;;;;;11.46;66.33;100679.78;5069702;28;20509;-65
2023/03/22 07:01:27;;;;;;;4.72;2.03;;;;;;;11.44;66.51;100673.81;5073929;28;20088;-65
2023/03/22 07:03:55;;;;;;;7.30;2.33;;;;;;;11.46;66.84;100655.53;5077953;28;20044;-64
2023/03/22 07:06:23;;;;;;;6.80;2.25;;;;;;;11.74;68.11;100671.84;5075380;28;20041;-63
2023/03/22 07:08:52;;;;;;;5.13;2.60;;;;;;;11.65;66.22;100655.22;5072302;28;20135;-64
2023/03/22 07:11:20;;;;;;;4.28;2.20;;;;;;;11.70;67.67;100662.59;5079786;28;20040;-65
2023/03/22 07:13:48;;;;;;;7.03;2.85;;;;;;;11.59;66.18;100666.09;5078859;28;20075;-65
2023/03/22 07:16:15;;;;;;;5.68;2.53;;;;;;;11.54;66.79;100656.03;5081229;28;20078;-65
2023/03/22 07:18:47;;;;;;;6.57;2.50;;;;;;;11.52;66.36;100660.00;5066821;28;20294;-65
2023/03/22 07:21:15;;;;;;;9.38;2.53;;;;;;;11.70;66.07;100662.59;5077641;28;20513;-65
2023/03/22 07:23:43;;;;;;;6.28;2.40;;;;;;;11.59;66.57;100669.59;5076179;28;20354;-65
2023/03/22 07:26:12;;;;;;;4.78;2.17;;;;;;;11.59;66.21;100668.78;5080275;28;20459;-65
2023/03/22 07:28:43;;;;;;;4.95;2.45;;;;;;;11.60;66.57;100670.44;5079769;28;20112;-65
2023/03/22 07:31:12;;;;;;;6.80;2.35;;;;;;;11.62;66.63;100676.41;5070878;28;20049;-65
2023/03/22 07:33:40;;;;;;;7.38;2.42;;;;;;;11.65;66.65;100668.69;5071346;28;20526;-65
2023/03/22 07:36:10;;;;;;;8.65;2.42;;;;;;;11.73;66.23;100664.81;5073740;28;20041;-65
2023/03/22 07:38:37;;;;;;;8.60;2.35;;;;;;;11.62;65.93;100666.44;5079266;28;20364;-66
2023/03/22 07:41:06;;;;;;;6.57;2.65;;;;;;;11.68;66.22;100675.47;5080575;28;20041;-65
2023/03/22 07:43:35;;;;;;;6.05;2.17;;;;;;;11.54;66.06;100660.59;5075141;28;20049;-65
2023/03/22 07:46:19;;;;;;;5.40;2.03;;;;;;;11.58;66.31;100670.66;5078324;28;20044;-66
2023/03/22 07:48:47;;;;;;;6.97;2.33;;;;;;;11.67;66.85;100677.34;5080614;28;20051;-65
2023/03/22 07:51:15;;;;;;;9.80;1.98;;;;;;;11.69;65.99;100675.22;5084166;28;20131;-65
2023/03/22 07:53:43;;;;;;;9.38;2.22;;;;;;;11.75;65.84;100673.47;5081682;28;20063;-65
2023/03/22 07:56:11;;;;;;;6.65;1.90;;;;;;;11.65;66.03;100671.38;5081992;28;20104;-65
2023/03/22 07:58:40;;;;;;;6.13;2.05;;;;;;;11.64;66.06;100679.66;5076856;28;20045;-66
2023/03/22 08:01:09;;;;;;;5.63;2.00;;;;;;;11.70;66.28;100667.97;5082905;28;20052;-65
2023/03/22 08:03:37;;;;;;;9.27;3.38;;;;;;;11.64;66.00;100668.91;5081207;28;20089;-65
2023/03/22 08:06:07;;;;;;;5.65;1.92;;;;;;;11.66;66.40;100667.63;5080894;28;20116;-65
2023/03/22 08:08:36;;;;;;;6.03;1.73;;;;;;;11.66;66.24;100669.50;5071997;28;20112;-66
2023/03/22 08:11:04;;;;;;;7.75;1.75;;;;;;;11.62;66.38;100669.13;5092693;28;20044;-65
2023/03/22 08:13:32;;;;;;;4.75;1.80;;;;;;;11.61;66.30;100669.38;5081729;28;20113;-64
2023/03/22 08:16:02;;;;;;;4.93;1.38;;;;;;;11.61;66.17;100675.56;5082346;28;20048;-65
2023/03/22 08:18:30;;;;;;;6.22;1.92;;;;;;;11.68;66.13;100675.47;5081316;28;20481;-65
2023/03/22 08:20:59;;;;;;;5.85;2.10;;;;;;;11.68;66.30;100684.38;5083456;28;20135;-65
2023/03/22 08:23:28;;;;;;;8.20;2.40;;;;;;;11.65;66.11;100682.13;5082584;28;20082;-65
2023/03/22 08:26:08;;;;;;;8.75;2.33;;;;;;;11.63;66.12;100686.94;5076962;28;20143;-65
2023/03/22 08:28:36;;;;;;;5.50;2.10;;;;;;;11.63;66.42;100688.81;5082022;28;20603;-65
2023/03/22 08:31:12;;;;;;;5.13;1.75;;;;;;;11.65;66.02;100684.81;5083157;28;20352;-65
2023/03/22 08:33:42;;;;;;;5.95;2.47;;;;;;;11.67;65.97;100676.50;5070086;28;20068;-66
2023/03/22 08:36:14;;;;;;;6.93;1.70;;;;;;;11.83;66.88;100677.72;5081308;28;20052;-66
2023/03/22 08:38:43;;;;;;;6.57;1.83;;;;;;;11.77;65.79;100670.56;5082761;28;20053;-65
2023/03/22 08:41:12;;;;;;;6.40;1.58;;;;;;;11.74;66.17;100666.44;5080178;28;20048;-66
2023/03/22 08:43:39;;;;;;;9.05;2.20;;;;;;;11.73;65.89;100659.44;5078522;28;20048;-63
2023/03/22 08:46:08;;;;;;;4.00;1.52;;;;;;;11.86;66.05;100663.78;5082437;28;20051;-65
2023/03/22 08:48:40;;;;;;;8.38;2.22;;;;;;;11.85;66.20;100670.22;5078995;28;20110;-65
2023/03/22 08:51:08;;;;;;;4.43;1.25;;;;;;;11.88;65.83;100659.00;5072847;28;20052;-66
2023/03/22 08:53:36;;;;;;;8.95;2.03;;;;;;;11.73;65.88;100649.47;5072211;28;20041;-67
2023/03/22 08:56:06;;;;;;;6.45;1.50;;;;;;;11.81;65.62;100663.69;5080178;28;20043;-65
2023/03/22 08:58:35;;;;;;;5.75;1.50;;;;;;;11.89;65.84;100664.16;5082144;28;20091;-67
2023/03/22 09:01:02;;;;;;;8.00;1.83;;;;;;;12.01;65.39;100664.13;5082189;28;20215;-67
2023/03/22 09:03:30;;;;;;;5.53;1.98;;;;;;;12.27;64.79;100660.09;5079357;28;20364;-66
2023/03/22 09:05:59;;;;;;;6.45;2.00;;;;;;;12.30;64.44;100656.91;5081631;28;20054;-67
2023/03/22 09:08:28;;;;;;;7.85;1.67;;;;;;;12.35;64.54;100649.75;5074439;28;20088;-71
2023/03/22 09:10:55;;;;;;;6.90;2.10;;;;;;;12.49;64.06;100657.56;5081154;28;20151;-71
2023/03/22 09:13:23;;;;;;;5.80;1.95;;;;;;;12.62;63.74;100647.34;5079542;28;20536;-69
2023/03/22 09:15:51;;;;;;;7.85;1.90;;;;;;;12.77;63.96;100638.72;5076939;28;20446;-68
2023/03/22 09:18:19;;;;;;;10.90;2.58;;;;;;;12.89;63.01;100636.78;5078113;28;20033;-68
2023/03/22 09:20:48;;;;;;;6.63;1.55;;;;;;;12.97;62.51;100638.28;5071835;28;20044;-68
2023/03/22 09:23:17;;;;;;;6.13;1.60;;;;;;;13.03;62.14;100638.13;5065096;28;20263;-66
2023/03/22 09:25:45;;;;;;;8.30;1.70;;;;;;;13.28;61.95;100645.03;5081531;28;20048;-66
2023/03/22 09:28:13;;;;;;;6.47;1.85;;;;;;;13.40;61.10;100624.19;5072875;28;20128;-66
2023/03/22 09:30:41;;;;;;;7.00;2.45;;;;;;;13.53;61.02;100626.56;5081675;28;20044;-66
2023/03/22 09:33:10;;;;;;;8.10;1.50;;;;;;;13.65;60.68;100640.78;5080215;28;20048;-65
2023/03/22 09:35:41;;;;;;;7.50;1.70;;;;;;;13.91;60.06;100644.66;5080585;28;20548;-66
2023/03/22 09:38:11;;;;;;;9.85;2.10;;;;;;;13.98;59.51;100629.06;5081574;28;20055;-65
2023/03/22 09:40:59;;;;;;;6.70;2.05;;;;;;;14.01;58.96;100633.97;5079160;28;20048;-67
2023/03/22 09:43:29;;;;;;;5.40;1.63;;;;;;;13.98;58.87;100633.66;5069881;28;20108;-67
2023/03/22 09:46:00;;;;;;;5.78;1.63;;;;;;;13.92;58.68;100642.75;5078588;28;20075;-66
2023/03/22 09:48:32;;;;;;;9.63;1.90;;;;;;;13.66;59.19;100628.91;5077739;28;20202;-67
2023/03/22 09:51:02;;;;;;;10.60;3.03;;;;;;;13.44;60.09;100627.22;5071594;28;20052;-66
2023/03/22 09:53:32;;;;;;;6.20;1.67;;;;;;;13.30;61.52;100630.25;5076707;28;20041;-66
2023/03/22 09:56:07;;;;;;;8.40;1.75;;;;;;;13.09;61.44;100630.94;5073300;28;20044;-67
2023/03/22 09:58:44;;;;;;;3.53;1.50;;;;;;;13.02;62.19;100624.88;5087406;28;20367;-66
2023/03/22 10:01:22;;;;;;;6.95;1.85;;;;;;;12.88;62.33;100626.22;5081118;28;20044;-67
2023/03/22 10:04:05;;;;;;;8.30;2.03;;;;;;;12.81;62.67;100639.88;5077009;28;20056;-66
2023/03/22 10:06:33;;;;;;;10.73;2.33;;;;;;;12.74;63.08;100635.69;5080226;28;20040;-67
2023/03/22 10:09:09;;;;;;;6.50;1.40;;;;;;;12.67;63.55;100630.44;5080154;28;20068;-67
2023/03/22 10:11:45;;;;;;;7.90;1.80;;;;;;;12.60;63.52;100635.16;5091729;28;20048;-67
2023/03/22 10:14:29;;;;;;;8.40;1.83;;;;;;;12.57;63.73;100641.84;5075988;28;20041;-67
2023/03/22 10:17:02;;;;;;;6.07;1.70;;;;;;;12.53;63.75;100632.59;5077608;28;20318;-67
2023/03/22 10:19:35;;;;;;;12.35;2.10;;;;;;;12.51;64.04;100625.81;5074979;28;20052;-67
2023/03/22 10:22:05;;;;;;;6.60;2.78;;;;;;;12.50;64.12;100630.38;5074635;28;20125;-71
2023/03/22 10:24:38;;;;;;;5.90;1.92;;;;;;;12.47;64.46;100636.25;5078198;28;20059;-66
2023/03/22 10:27:15;;;;;;;4.97;1.58;;;;;;;12.43;63.92;100636.97;5079854;28;20559;-66
2023/03/22 10:29:49;;;;;;;7.95;2.33;;;;;;;12.41;64.43;100639.91;5077063;28;20197;-67
2023/03/22 10:32:18;;;;;;;8.90;1.98;;;;;;;12.41;64.27;100641.78;5078083;28;20068;-67
2023/03/22 10:34:48;;;;;;;11.85;2.25;;;;;;;12.38;63.59;100641.19;5076566;28;20072;-66
2023/03/22 10:37:20;;;;;;;8.77;3.15;;;;;;;12.37;63.94;100646.81;5077998;28;20087;-66
2023/03/22 10:39:51;;;;;;;8.35;2.40;;;;;;;12.35;63.46;100651.63;5079969;28;20135;-66
2023/03/22 10:42:23;;;;;;;9.15;3.00;;;;;;;12.32;63.99;100650.22;5075058;28;20059;-66
2023/03/22 10:44:55;;;;;;;11.63;2.40;;;;;;;12.31;64.49;100637.00;5063985;28;20170;-67
2023/03/22 10:47:32;;;;;;;7.13;2.00;;;;;;;12.30;64.66;100638.06;5077408;28;20507;-67
2023/03/22 10:50:02;;;;;;;7.28;1.70;;;;;;;12.28;64.97;100641.00;5070882;28;20334;-67
2023/03/22 10:52:38;;;;;;;8.38;2.10;;;;;;;12.28;65.12;100650.94;5075728;28;20060;-66
2023/03/22 10:55:11;;;;;;;11.00;2.72;;;;;;;12.26;65.39;100643.09;5071742;28;20044;-70
2023/03/22 10:57:42;;;;;;;6.68;1.88;;;;;;;12.24;65.58;100636.31;5079296;28;20079;-67
2023/03/22 11:00:16;;;;;;;6.68;2.00;;;;;;;12.32;65.62;100652.09;5071942;28;20041;-66
2023/03/22 11:02:50;;;;;;;8.60;1.70;;;;;;;12.42;64.71;100640.72;5075385;28;20132;-67
2023/03/22 11:05:22;;;;;;;6.90;1.70;;;;;;;12.63;64.54;100645.44;5078005;28;20281;-67
2023/03/22 11:07:51;;;;;;;7.35;2.00;;;;;;;12.81;63.86;100650.66;5076247;28;20045;-65
2023/03/22 11:10:22;;;;;;;6.43;2.47;;;;;;;12.99;63.77;100652.34;5079413;28;20510;-66
2023/03/22 11:12:53;;;;;;;5.10;1.85;;;;;;;13.18;62.75;100637.59;5080131;28;20053;-69
2023/03/22 11:15:26;;;;;;;5.95;2.00;;;;;;;13.40;62.13;100644.97;5080567;28;20045;-66
2023/03/22 11:17:59;;;;;;;7.43;1.75;;;;;;;13.56;61.79;100641.44;5073229;28;20123;-67
2023/03/22 11:20:28;;;;;;;7.20;1.60;;;;;;;13.64;61.28;100643.72;5083313;28;20079;-66
2023/03/22 11:23:01;;;;;;;9.07;2.42;;;;;;;13.59;61.66;100635.56;5083901;28;20049;-66
2023/03/22 11:25:31;;;;;;;6.43;1.75;;;;;;;13.46;61.95;100644.81;5081433;28;20044;-67
2023/03/22 11:28:15;;;;;;;9.10;2.05;;;;;;;13.31;62.71;100647.25;5083106;28;20059;-67
2023/03/22 11:30:58;;;;;;;7.75;1.75;;;;;;;13.13;63.43;100636.66;5084124;28;20186;-63
2023/03/22 11:33:26;;;;;;;6.88;1.80;;;;;;;12.98;63.49;100640.72;5070800;28;20146;-66
2023/03/22 11:35:56;;;;;;;6.57;1.83;;;;;;;12.90;64.19;100637.59;5081336;28;20091;-66
2023/03/22 11:38:28;;;;;;;7.40;2.08;;;;;;;12.84;64.36;100642.09;5070894;28;20051;-66
2023/03/22 11:41:00;;;;;;;6.60;1.63;;;;;;;12.78;64.28;100634.13;5073025;28;20053;-65